createdAt,value
2022-09-20T14:45:05.265Z,14.95
2022-09-20T14:52:31.938Z,14.95
2022-09-20T14:54:46.759Z,14.87
2022-09-20T14:56:57.236Z,14.95
2022-09-20T14:59:08.020Z,14.91
2022-09-20T15:01:27.848Z,14.92
2022-09-20T15:03:35.891Z,15.03
2022-09-20T15:05:43.595Z,15.11
2022-09-20T15:07:51.477Z,15.21
2022-09-20T15:10:04.030Z,15.1
2022-09-20T15:12:11.438Z,14.95
2022-09-20T15:14:24.335Z,14.29
2022-09-20T15:16:40.553Z,13.89
2022-09-20T15:18:47.827Z,13.63
2022-09-20T15:20:54.329Z,13.44
2022-09-20T15:23:01.107Z,13.07
2022-09-20T15:25:17.098Z,12.53
2022-09-20T15:27:40.420Z,12.22
2022-09-20T15:29:48.361Z,12.01
2022-09-20T15:31:55.033Z,12.01
2022-09-20T15:34:03.003Z,11.99
2022-09-20T15:38:49.344Z,11.6
2022-09-20T15:41:00.169Z,11.48
2022-09-20T15:43:06.545Z,11.39
2022-09-20T15:45:13.079Z,11.23
2022-09-20T15:47:19.400Z,11.16
2022-09-20T15:49:25.845Z,11.14
2022-09-20T15:51:32.842Z,11.1
2022-09-20T15:53:39.191Z,11.11
2022-09-20T15:55:45.670Z,11.08
2022-09-20T15:57:52.375Z,10.98
2022-09-20T15:59:59.489Z,10.91
2022-09-20T16:02:06.538Z,10.89
2022-09-20T16:04:13.143Z,10.79
2022-09-20T16:06:19.833Z,10.77
2022-09-20T16:08:26.319Z,10.85
2022-09-20T16:10:33.154Z,10.86
2022-09-20T16:12:39.753Z,10.79
2022-09-20T16:14:46.364Z,10.8
2022-09-20T16:16:52.459Z,10.82
2022-09-20T17:28:23.738Z,9.96
2022-09-20T19:07:39.923Z,9.64
2022-09-20T19:09:59.720Z,9.61
2022-09-20T19:12:30.444Z,9.55
2022-09-20T19:15:35.967Z,9.53
2022-09-20T19:18:47.310Z,9.46
2022-09-20T19:21:32.710Z,9.38
2022-09-20T19:24:40.549Z,9.3
2022-09-20T19:27:13.299Z,9.27
2022-09-20T19:37:54.574Z,9.29
2022-09-20T19:40:29.757Z,9.31
2022-09-20T19:43:07.646Z,9.3
2022-09-20T19:54:04.024Z,9.25
2022-09-20T19:56:58.464Z,9.23
2022-09-20T19:59:40.853Z,9.21
2022-09-20T20:06:28.870Z,9.27
2022-09-20T20:13:51.714Z,9.32
2022-09-20T20:19:41.398Z,9.24
2022-09-20T20:22:45.846Z,9.12
2022-09-20T20:26:25.996Z,8.99
2022-09-20T20:28:56.428Z,8.86
2022-09-20T20:31:42.318Z,8.76
2022-09-20T20:37:29.019Z,8.7
2022-09-20T20:40:28.498Z,8.62
2022-09-20T20:43:18.207Z,8.59
2022-09-20T20:45:59.932Z,8.53
2022-09-20T20:48:41.242Z,8.44
2022-09-20T20:52:22.711Z,8.32
2022-09-20T20:55:28.670Z,8.3
2022-09-20T20:58:07.750Z,8.27
2022-09-20T21:00:47.749Z,8.14
2022-09-20T21:03:50.720Z,8.07
2022-09-20T21:06:41.389Z,8.06
2022-09-20T21:09:15.483Z,8.07
2022-09-20T21:15:04.326Z,8.16
2022-09-20T21:17:47.320Z,8.16
2022-09-20T21:20:18.494Z,8.2
2022-09-20T21:22:44.449Z,8.16
2022-09-20T21:24:54.565Z,8.1
2022-09-20T21:27:20.340Z,8.09
2022-09-20T21:29:54.403Z,8.07
2022-09-20T21:32:14.578Z,8.11
2022-09-20T21:34:44.963Z,8.05
2022-09-20T21:37:25.627Z,8.03
2022-09-20T21:39:44.720Z,8
2022-09-20T21:42:02.045Z,8
2022-09-20T21:44:45.740Z,8.02
2022-09-20T21:47:03.307Z,8.03
2022-09-20T21:49:26.877Z,8.11
2022-09-20T21:54:31.324Z,8.28
2022-09-20T21:59:27.521Z,8.43
2022-09-20T22:01:50.304Z,8.49
2022-09-20T22:04:11.437Z,8.59
2022-09-20T22:06:30.329Z,8.74
2022-09-20T22:08:58.299Z,8.82
2022-09-20T22:13:11.543Z,8.9
2022-09-20T22:16:28.507Z,8.98
2022-09-20T22:19:12.954Z,9.05
2022-09-20T22:22:50.902Z,9.17
2022-09-20T22:25:34.108Z,9.23
2022-09-20T22:28:16.976Z,9.23
2022-09-20T22:30:34.892Z,9.13
2022-09-20T22:33:43.736Z,9.12
2022-09-20T22:59:07.509Z,8.76
2022-09-20T23:02:21.706Z,8.7
2022-09-20T23:34:11.551Z,8.21
2022-09-20T23:43:03.777Z,8.24
